SWA1334 KDAL-KMSY
Flight info
| Callsign | SWA1334 |
|---|---|
| Flight time | 0h 54m |
| Altitude | 35000 |
| Route | LNDRE5 ZALEA SWEUP LSU AWDAD1 |
| Aircraft | B737/M-SDE2E3FGHIRWXY/LB1 |
Departure
| Time | 2026-05-01 13:12 |
|---|---|
| Airport | Dallas Love Field (KDAL) |
Arrival
| Time | 2026-05-01 14:06 |
|---|---|
| Airport | Louis Armstrong New Orleans International Airport (KMSY) |
| Time | Latitude | Longitude | Altitude | Speed | Heading |
|---|---|---|---|---|---|
| 2026-05-01 12:59 | 32.84644 | -96.85088 | 482 ft | 0 kts | 180° |
| 2026-05-01 13:07 | 32.84720 | -96.85088 | 479 ft | 3 kts | 180° |
| 2026-05-01 13:07 | 32.84735 | -96.85081 | 479 ft | 2 kts | 249° |
| 2026-05-01 13:07 | 32.84738 | -96.85073 | 482 ft | 0 kts | 279° |
| 2026-05-01 13:08 | 32.84738 | -96.85074 | 482 ft | 1 kts | 280° |
| 2026-05-01 13:09 | 32.84747 | -96.85151 | 481 ft | 14 kts | 270° |
| 2026-05-01 13:09 | 32.84749 | -96.85277 | 480 ft | 16 kts | 282° |
| 2026-05-01 13:09 | 32.84847 | -96.85300 | 480 ft | 14 kts | 9° |
| 2026-05-01 13:09 | 32.84862 | -96.85346 | 482 ft | 15 kts | 285° |
| 2026-05-01 13:10 | 32.84819 | -96.85443 | 478 ft | 17 kts | 207° |
| 2026-05-01 13:10 | 32.84771 | -96.85589 | 483 ft | 24 kts | 258° |
| 2026-05-01 13:10 | 32.84801 | -96.85787 | 483 ft | 17 kts | 315° |
| 2026-05-01 13:10 | 32.84785 | -96.85891 | 479 ft | 15 kts | 210° |
| 2026-05-01 13:11 | 32.84733 | -96.85883 | 483 ft | 0 kts | 137° |
| 2026-05-01 13:11 | 32.84719 | -96.85868 | 481 ft | 20 kts | 137° |
| 2026-05-01 13:11 | 32.84428 | -96.85531 | 482 ft | 96 kts | 136° |
| 2026-05-01 13:11 | 32.83801 | -96.84789 | 507 ft | 153 kts | 133° |
| 2026-05-01 13:12 | 32.82986 | -96.83873 | 1091 ft | 160 kts | 133° |
| 2026-05-01 13:12 | 32.82229 | -96.82938 | 2065 ft | 157 kts | 126° |
| 2026-05-01 13:12 | 32.81408 | -96.81890 | 2572 ft | 192 kts | 127° |
| 2026-05-01 13:12 | 32.80413 | -96.80624 | 2917 ft | 228 kts | 128° |
| 2026-05-01 13:13 | 32.79254 | -96.79167 | 3565 ft | 251 kts | 128° |
| 2026-05-01 13:13 | 32.78039 | -96.77655 | 4728 ft | 253 kts | 129° |
| 2026-05-01 13:13 | 32.76800 | -96.76114 | 5577 ft | 264 kts | 130° |
| 2026-05-01 13:13 | 32.75516 | -96.74537 | 6439 ft | 272 kts | 133° |
| 2026-05-01 13:14 | 32.74131 | -96.72933 | 7417 ft | 278 kts | 134° |
| 2026-05-01 13:14 | 32.72729 | -96.71326 | 8279 ft | 289 kts | 134° |
| 2026-05-01 13:14 | 32.71256 | -96.69634 | 9241 ft | 292 kts | 135° |
| 2026-05-01 13:14 | 32.69802 | -96.67937 | 10102 ft | 302 kts | 134° |
| 2026-05-01 13:15 | 32.68513 | -96.65866 | 10486 ft | 328 kts | 117° |
| 2026-05-01 13:15 | 32.67499 | -96.63304 | 10711 ft | 356 kts | 114° |
| 2026-05-01 13:15 | 32.66494 | -96.60510 | 11117 ft | 377 kts | 113° |
| 2026-05-01 13:15 | 32.65460 | -96.57594 | 11714 ft | 389 kts | 114° |
| 2026-05-01 13:16 | 32.64383 | -96.54597 | 12429 ft | 400 kts | 115° |
| 2026-05-01 13:16 | 32.63260 | -96.51531 | 13072 ft | 410 kts | 116° |
| 2026-05-01 13:16 | 32.62090 | -96.48392 | 13737 ft | 420 kts | 117° |
| 2026-05-01 13:17 | 32.58418 | -96.38729 | 15795 ft | 439 kts | 118° |
| 2026-05-01 13:17 | 32.57125 | -96.35359 | 16423 ft | 446 kts | 118° |
| 2026-05-01 13:18 | 32.54528 | -96.28602 | 17695 ft | 459 kts | 120° |
| 2026-05-01 13:18 | 32.53198 | -96.25146 | 18407 ft | 463 kts | 120° |
| 2026-05-01 13:18 | 32.51861 | -96.21671 | 19109 ft | 464 kts | 120° |
| 2026-05-01 13:18 | 32.50522 | -96.18189 | 19806 ft | 465 kts | 121° |
| 2026-05-01 13:19 | 32.49174 | -96.14691 | 20445 ft | 467 kts | 121° |
| 2026-05-01 13:19 | 32.47818 | -96.11181 | 21025 ft | 471 kts | 121° |
| 2026-05-01 13:19 | 32.45064 | -96.04064 | 21984 ft | 481 kts | 121° |
| 2026-05-01 13:20 | 32.43662 | -96.00450 | 22489 ft | 484 kts | 121° |
| 2026-05-01 13:20 | 32.42255 | -95.96819 | 23065 ft | 486 kts | 121° |
| 2026-05-01 13:20 | 32.40843 | -95.93179 | 23627 ft | 488 kts | 122° |
| 2026-05-01 13:21 | 32.38004 | -95.85869 | 24573 ft | 489 kts | 122° |
| 2026-05-01 13:21 | 32.36581 | -95.82209 | 25095 ft | 487 kts | 122° |
| 2026-05-01 13:21 | 32.35163 | -95.78565 | 25606 ft | 486 kts | 123° |
| 2026-05-01 13:21 | 32.33766 | -95.74983 | 26087 ft | 486 kts | 123° |
| 2026-05-01 13:22 | 32.32345 | -95.71347 | 26556 ft | 487 kts | 123° |
| 2026-05-01 13:22 | 32.30919 | -95.67705 | 26862 ft | 491 kts | 123° |
| 2026-05-01 13:22 | 32.29469 | -95.64013 | 27129 ft | 496 kts | 123° |
| 2026-05-01 13:22 | 32.28020 | -95.60319 | 27571 ft | 496 kts | 123° |
| 2026-05-01 13:23 | 32.26572 | -95.56623 | 28042 ft | 494 kts | 123° |
| 2026-05-01 13:23 | 32.25123 | -95.52927 | 28488 ft | 494 kts | 124° |
| 2026-05-01 13:23 | 32.23669 | -95.49231 | 28867 ft | 495 kts | 124° |
| 2026-05-01 13:23 | 32.22218 | -95.45552 | 29328 ft | 491 kts | 123° |
| 2026-05-01 13:24 | 32.20793 | -95.41925 | 30164 ft | 482 kts | 123° |
| 2026-05-01 13:24 | 32.19387 | -95.38349 | 30630 ft | 480 kts | 124° |
| 2026-05-01 13:24 | 32.17996 | -95.34824 | 30954 ft | 479 kts | 124° |
| 2026-05-01 13:25 | 32.15207 | -95.27769 | 31978 ft | 470 kts | 124° |
| 2026-05-01 13:25 | 32.13829 | -95.24289 | 32471 ft | 466 kts | 124° |
| 2026-05-01 13:25 | 32.12459 | -95.20832 | 32917 ft | 464 kts | 124° |
| 2026-05-01 13:25 | 32.11090 | -95.17389 | 33279 ft | 465 kts | 124° |
| 2026-05-01 13:26 | 32.09711 | -95.13926 | 33647 ft | 466 kts | 124° |
| 2026-05-01 13:26 | 32.08335 | -95.10469 | 34108 ft | 465 kts | 124° |
| 2026-05-01 13:26 | 32.06961 | -95.07019 | 34500 ft | 464 kts | 125° |
| 2026-05-01 13:26 | 32.05586 | -95.03567 | 34822 ft | 465 kts | 125° |
| 2026-05-01 13:27 | 32.04210 | -95.00119 | 35135 ft | 465 kts | 125° |
| 2026-05-01 13:27 | 32.02832 | -94.96667 | 35473 ft | 465 kts | 125° |
| 2026-05-01 13:27 | 32.00061 | -94.89740 | 35915 ft | 471 kts | 124° |
| 2026-05-01 13:28 | 31.97281 | -94.82797 | 36582 ft | 468 kts | 124° |
| 2026-05-01 13:28 | 31.95900 | -94.79342 | 36991 ft | 466 kts | 125° |
| 2026-05-01 13:29 | 31.93112 | -94.72402 | 37379 ft | 471 kts | 125° |
| 2026-05-01 13:29 | 31.90302 | -94.65423 | 37932 ft | 471 kts | 125° |
| 2026-05-01 13:30 | 31.84661 | -94.51457 | 38555 ft | 481 kts | 125° |
| 2026-05-01 13:31 | 31.81761 | -94.44301 | 38878 ft | 484 kts | 125° |
| 2026-05-01 13:31 | 31.77369 | -94.33476 | 39044 ft | 496 kts | 124° |
| 2026-05-01 13:32 | 31.74363 | -94.26097 | 39051 ft | 505 kts | 124° |
| 2026-05-01 13:33 | 31.66664 | -94.07221 | 39041 ft | 516 kts | 123° |
| 2026-05-01 13:34 | 31.60433 | -93.92024 | 39030 ft | 518 kts | 123° |
| 2026-05-01 13:35 | 31.55744 | -93.80630 | 39033 ft | 516 kts | 123° |
| 2026-05-01 13:36 | 31.51056 | -93.69281 | 39034 ft | 514 kts | 123° |
| 2026-05-01 13:36 | 31.46373 | -93.57984 | 39007 ft | 513 kts | 123° |
| 2026-05-01 13:37 | 31.43783 | -93.51748 | 39020 ft | 512 kts | 123° |
| 2026-05-01 13:37 | 31.40143 | -93.43001 | 39029 ft | 510 kts | 123° |
| 2026-05-01 13:38 | 31.35491 | -93.31857 | 39021 ft | 509 kts | 123° |
| 2026-05-01 13:39 | 31.32373 | -93.24407 | 39018 ft | 509 kts | 123° |
| 2026-05-01 13:39 | 31.29252 | -93.16965 | 39014 ft | 509 kts | 123° |
| 2026-05-01 13:40 | 31.26131 | -93.09537 | 39011 ft | 509 kts | 123° |
| 2026-05-01 13:40 | 31.23007 | -93.02116 | 39023 ft | 508 kts | 123° |
| 2026-05-01 13:41 | 31.19892 | -92.94729 | 38951 ft | 506 kts | 124° |
| 2026-05-01 13:41 | 31.16782 | -92.87370 | 39011 ft | 505 kts | 124° |
| 2026-05-01 13:42 | 31.13669 | -92.80029 | 39021 ft | 507 kts | 124° |
| 2026-05-01 13:42 | 31.10527 | -92.72631 | 39027 ft | 510 kts | 124° |
| 2026-05-01 13:43 | 31.07364 | -92.65195 | 39010 ft | 513 kts | 124° |
| 2026-05-01 13:43 | 31.04716 | -92.58979 | 39014 ft | 515 kts | 124° |
| 2026-05-01 13:44 | 31.01519 | -92.51487 | 39011 ft | 517 kts | 124° |
| 2026-05-01 13:44 | 30.98307 | -92.43974 | 39001 ft | 518 kts | 124° |
| 2026-05-01 13:45 | 30.95088 | -92.36460 | 39003 ft | 518 kts | 124° |
| 2026-05-01 13:45 | 30.91867 | -92.28958 | 38966 ft | 517 kts | 123° |
| 2026-05-01 13:46 | 30.88667 | -92.21518 | 38992 ft | 516 kts | 123° |
| 2026-05-01 13:46 | 30.85438 | -92.14031 | 38998 ft | 516 kts | 123° |
| 2026-05-01 13:47 | 30.82212 | -92.06566 | 38989 ft | 516 kts | 123° |
| 2026-05-01 13:47 | 30.79041 | -91.99221 | 38963 ft | 494 kts | 124° |
| 2026-05-01 13:47 | 30.77529 | -91.95709 | 38909 ft | 478 kts | 124° |
| 2026-05-01 13:48 | 30.76035 | -91.92258 | 38094 ft | 478 kts | 124° |
| 2026-05-01 13:48 | 30.74518 | -91.88785 | 37006 ft | 484 kts | 124° |
| 2026-05-01 13:48 | 30.72986 | -91.85284 | 35993 ft | 487 kts | 123° |
| 2026-05-01 13:48 | 30.71443 | -91.81754 | 34969 ft | 489 kts | 123° |
| 2026-05-01 13:49 | 30.69920 | -91.78264 | 34045 ft | 495 kts | 122° |
| 2026-05-01 13:49 | 30.68358 | -91.74685 | 33218 ft | 497 kts | 122° |
| 2026-05-01 13:49 | 30.66800 | -91.71109 | 32497 ft | 496 kts | 122° |
| 2026-05-01 13:49 | 30.65245 | -91.67542 | 31729 ft | 495 kts | 121° |
| 2026-05-01 13:50 | 30.63680 | -91.63959 | 30918 ft | 496 kts | 121° |
| 2026-05-01 13:50 | 30.62120 | -91.60393 | 30090 ft | 497 kts | 121° |
| 2026-05-01 13:50 | 30.60549 | -91.56806 | 29067 ft | 498 kts | 121° |
| 2026-05-01 13:50 | 30.58970 | -91.53205 | 27934 ft | 501 kts | 121° |
| 2026-05-01 13:51 | 30.57380 | -91.49584 | 26767 ft | 505 kts | 121° |
| 2026-05-01 13:51 | 30.55778 | -91.45936 | 25565 ft | 510 kts | 121° |
| 2026-05-01 13:51 | 30.54179 | -91.42297 | 24530 ft | 512 kts | 121° |
| 2026-05-01 13:51 | 30.52566 | -91.38626 | 23625 ft | 509 kts | 121° |
| 2026-05-01 13:52 | 30.50952 | -91.34958 | 22452 ft | 509 kts | 121° |
| 2026-05-01 13:52 | 30.49189 | -91.31430 | 21468 ft | 499 kts | 130° |
| 2026-05-01 13:52 | 30.47122 | -91.28241 | 20572 ft | 490 kts | 132° |
| 2026-05-01 13:52 | 30.45244 | -91.25036 | 19891 ft | 471 kts | 128° |
| 2026-05-01 13:53 | 30.43543 | -91.21859 | 18953 ft | 459 kts | 128° |
| 2026-05-01 13:53 | 30.40268 | -91.15607 | 16628 ft | 446 kts | 127° |
| 2026-05-01 13:53 | 30.38660 | -91.12585 | 15595 ft | 435 kts | 127° |
| 2026-05-01 13:54 | 30.37079 | -91.09656 | 14599 ft | 425 kts | 127° |
| 2026-05-01 13:54 | 30.35534 | -91.06826 | 13579 ft | 417 kts | 128° |
| 2026-05-01 13:54 | 30.33990 | -91.04016 | 12541 ft | 408 kts | 127° |
| 2026-05-01 13:54 | 30.32486 | -91.01287 | 11622 ft | 397 kts | 126° |
| 2026-05-01 13:55 | 30.31022 | -90.98634 | 10705 ft | 386 kts | 126° |
| 2026-05-01 13:55 | 30.29612 | -90.96079 | 10393 ft | 361 kts | 126° |
| 2026-05-01 13:55 | 30.28310 | -90.93713 | 10220 ft | 336 kts | 126° |
| 2026-05-01 13:55 | 30.27098 | -90.91514 | 10075 ft | 313 kts | 126° |
| 2026-05-01 13:56 | 30.25963 | -90.89458 | 9843 ft | 297 kts | 126° |
| 2026-05-01 13:56 | 30.24862 | -90.87469 | 9593 ft | 288 kts | 126° |
| 2026-05-01 13:56 | 30.23791 | -90.85535 | 9290 ft | 283 kts | 126° |
| 2026-05-01 13:56 | 30.22729 | -90.83621 | 8960 ft | 281 kts | 126° |
| 2026-05-01 13:57 | 30.21678 | -90.81725 | 8637 ft | 278 kts | 126° |
| 2026-05-01 13:57 | 30.20636 | -90.79845 | 8293 ft | 276 kts | 126° |
| 2026-05-01 13:57 | 30.19615 | -90.78003 | 7967 ft | 274 kts | 126° |
| 2026-05-01 13:57 | 30.18585 | -90.76146 | 7633 ft | 273 kts | 126° |
| 2026-05-01 13:58 | 30.17563 | -90.74302 | 7295 ft | 272 kts | 126° |
| 2026-05-01 13:58 | 30.16542 | -90.72462 | 6962 ft | 271 kts | 126° |
| 2026-05-01 13:58 | 30.15524 | -90.70628 | 6632 ft | 270 kts | 126° |
| 2026-05-01 13:58 | 30.14510 | -90.68801 | 6293 ft | 270 kts | 126° |
| 2026-05-01 13:59 | 30.13499 | -90.66981 | 5939 ft | 269 kts | 126° |
| 2026-05-01 13:59 | 30.12488 | -90.65161 | 5596 ft | 268 kts | 126° |
| 2026-05-01 13:59 | 30.11482 | -90.63349 | 5252 ft | 267 kts | 125° |
| 2026-05-01 13:59 | 30.10480 | -90.61546 | 4950 ft | 267 kts | 126° |
| 2026-05-01 14:00 | 30.09465 | -90.59729 | 4600 ft | 272 kts | 128° |
| 2026-05-01 14:00 | 30.08429 | -90.57871 | 4331 ft | 275 kts | 122° |
| 2026-05-01 14:00 | 30.07442 | -90.56045 | 4202 ft | 261 kts | 126° |
| 2026-05-01 14:00 | 30.06491 | -90.54343 | 4064 ft | 244 kts | 126° |
| 2026-05-01 14:01 | 30.05611 | -90.52731 | 3964 ft | 233 kts | 119° |
| 2026-05-01 14:01 | 30.05139 | -90.50972 | 3725 ft | 231 kts | 105° |
| 2026-05-01 14:01 | 30.04765 | -90.49170 | 3446 ft | 231 kts | 108° |
| 2026-05-01 14:01 | 30.04246 | -90.47424 | 3137 ft | 229 kts | 109° |
| 2026-05-01 14:02 | 30.03718 | -90.45691 | 2927 ft | 238 kts | 122° |
| 2026-05-01 14:02 | 30.02789 | -90.43991 | 2945 ft | 257 kts | 106° |
| 2026-05-01 14:02 | 30.02539 | -90.41977 | 2654 ft | 249 kts | 100° |
| 2026-05-01 14:02 | 30.02151 | -90.40119 | 2401 ft | 227 kts | 107° |
| 2026-05-01 14:03 | 30.01913 | -90.38366 | 1750 ft | 217 kts | 95° |
| 2026-05-01 14:03 | 30.01759 | -90.36721 | 1365 ft | 197 kts | 97° |
| 2026-05-01 14:03 | 30.01459 | -90.35272 | 1137 ft | 174 kts | 109° |
| 2026-05-01 14:03 | 30.01069 | -90.34022 | 882 ft | 155 kts | 105° |
| 2026-05-01 14:04 | 30.00793 | -90.32912 | 801 ft | 143 kts | 100° |
| 2026-05-01 14:04 | 30.00539 | -90.31823 | 622 ft | 138 kts | 102° |
| 2026-05-01 14:04 | 30.00290 | -90.30793 | 473 ft | 131 kts | 101° |
| 2026-05-01 14:04 | 30.00122 | -90.30109 | 369 ft | 132 kts | 103° |
| 2026-05-01 14:05 | 29.99797 | -90.28724 | 143 ft | 131 kts | 105° |
| 2026-05-01 14:05 | 29.99552 | -90.27720 | 0 ft | 125 kts | 104° |
| 2026-05-01 14:05 | 29.99352 | -90.26868 | 8 ft | 93 kts | 107° |
| 2026-05-01 14:05 | 29.99208 | -90.26290 | 5 ft | 57 kts | 105° |
| 2026-05-01 14:06 | 29.99112 | -90.25890 | 8 ft | 48 kts | 106° |
| 2026-05-01 14:06 | 29.99103 | -90.25650 | 5 ft | 24 kts | 25° |
| 2026-05-01 14:06 | 29.99254 | -90.25588 | 4 ft | 23 kts | 41° |
| 2026-05-01 14:06 | 29.99343 | -90.25465 | 5 ft | 12 kts | 84° |
| 2026-05-01 14:07 | 29.99343 | -90.25438 | 5 ft | 0 kts | 89° |